Time;durP1;ratioP1;P1;durP2;ratioP2;P2;SDS_P1;SDS_P2;PMS_P1;PMS_P2;Temp;Humidity;BMP_temperature;BMP_pressure;BME280_temperature;BME280_humidity;BME280_pressure;Samples;Min_cycle;Max_cycle;Signal;HPM_P1;HPM_P2
2022/04/19 00:00:45;;;;;;;5.03;3.47;;;10.30;83.40;;;;;;5054461;28;20924;-59
2022/04/19 00:03:14;;;;;;;3.83;3.47;;;10.30;83.10;;;;;;5054385;28;20451;-59
2022/04/19 00:05:42;;;;;;;5.27;4.40;;;10.40;83.50;;;;;;5054609;28;20460;-59
2022/04/19 00:08:10;;;;;;;4.93;3.90;;;10.40;84.40;;;;;;5054607;28;20468;-59
2022/04/19 00:10:38;;;;;;;4.17;3.73;;;10.30;83.70;;;;;;5054300;28;20446;-59
2022/04/19 00:13:06;;;;;;;4.57;3.73;;;10.40;82.90;;;;;;5054491;28;20446;-60
2022/04/19 00:15:38;;;;;;;6.60;4.27;;;10.40;82.80;;;;;;5054443;28;20453;-58
2022/04/19 00:18:06;;;;;;;5.10;3.90;;;10.40;83.00;;;;;;5054497;28;20476;-59
2022/04/19 00:20:34;;;;;;;8.20;4.70;;;10.10;83.20;;;;;;5054015;28;20969;-59
2022/04/19 00:23:03;;;;;;;4.57;4.00;;;10.10;84.10;;;;;;5054332;28;20445;-59
2022/04/19 00:25:31;;;;;;;5.10;4.60;;;10.10;85.10;;;;;;5054130;28;20981;-59
2022/04/19 00:27:58;;;;;;;4.00;3.70;;;10.00;85.50;;;;;;5053906;28;21011;-59
2022/04/19 00:30:25;;;;;;;10.13;4.67;;;10.00;86.40;;;;;;5054168;28;20449;-59
2022/04/19 00:32:54;;;;;;;5.50;4.40;;;10.00;86.40;;;;;;5053742;28;20564;-59
2022/04/19 00:35:23;;;;;;;7.73;4.70;;;9.70;87.70;;;;;;5053760;28;20810;-59
2022/04/19 00:37:51;;;;;;;5.70;4.07;;;9.60;88.60;;;;;;5053682;28;20465;-59
2022/04/19 00:40:18;;;;;;;4.13;3.70;;;9.70;90.00;;;;;;5054036;28;20449;-60
2022/04/19 00:42:46;;;;;;;5.00;3.80;;;9.80;88.70;;;;;;5053677;28;20568;-59
2022/04/19 00:45:13;;;;;;;4.00;3.70;;;9.80;87.90;;;;;;5053618;28;20924;-59
2022/04/19 00:47:41;;;;;;;12.93;4.37;;;9.90;88.50;;;;;;5053514;28;20875;-59
2022/04/19 00:50:10;;;;;;;4.43;4.00;;;9.90;88.80;;;;;;5053832;28;20460;-59
2022/04/19 00:52:38;;;;;;;4.97;4.20;;;9.90;87.60;;;;;;5053463;28;20448;-59
2022/04/19 00:55:08;;;;;;;4.83;4.30;;;9.80;88.40;;;;;;5053230;28;20839;-60
2022/04/19 00:57:37;;;;;;;5.07;4.67;;;9.70;89.60;;;;;;5053745;28;20469;-60
2022/04/19 01:00:08;;;;;;;6.03;3.87;;;9.70;90.10;;;;;;5053386;28;20450;-59
2022/04/19 01:02:37;;;;;;;5.00;4.47;;;9.80;90.10;;;;;;5053282;28;20484;-59
2022/04/19 01:05:04;;;;;;;6.03;4.43;;;9.80;90.60;;;;;;5053317;28;20455;-59
2022/04/19 01:07:34;;;;;;;8.20;4.30;;;9.70;90.30;;;;;;5053310;28;20552;-60
2022/04/19 01:10:02;;;;;;;5.10;4.27;;;9.50;90.50;;;;;;5053235;28;20449;-60
2022/04/19 01:15:15;;;;;;;4.93;4.50;;;9.50;91.30;;;;;;5053365;28;20424;-59
2022/04/19 01:17:42;;;;;;;7.13;4.77;;;9.40;91.50;;;;;;5053486;28;20538;-60
2022/04/19 01:20:12;;;;;;;6.83;4.40;;;9.40;91.80;;;;;;5053456;28;20453;-59
2022/04/19 01:22:41;;;;;;;5.07;4.00;;;9.40;92.10;;;;;;5053035;28;21065;-59
2022/04/19 01:25:10;;;;;;;5.80;4.60;;;9.40;92.00;;;;;;5053207;28;20484;-59
2022/04/19 01:27:37;;;;;;;4.60;3.87;;;9.30;91.70;;;;;;5053383;28;20461;-59
2022/04/19 01:30:06;;;;;;;4.80;4.40;;;9.20;91.80;;;;;;5053024;28;20817;-59
2022/04/19 01:32:33;;;;;;;5.07;4.10;;;9.20;92.70;;;;;;5051788;28;20469;-59
2022/04/19 01:35:12;;;;;;;4.37;3.97;;;9.20;92.10;;;;;;5053380;28;20452;-60
2022/04/19 01:37:43;;;;;;;5.73;3.57;;;9.30;92.40;;;;;;5053247;28;20816;-59
2022/04/19 01:40:17;;;;;;;5.90;4.20;;;9.30;92.80;;;;;;5053295;28;20430;-59
2022/04/19 01:42:45;;;;;;;4.20;3.80;;;9.30;92.50;;;;;;5053227;28;20476;-59
2022/04/19 01:45:14;;;;;;;5.37;4.77;;;9.30;92.60;;;;;;5053048;28;20517;-59
2022/04/19 01:47:41;;;;;;;4.40;3.97;;;9.20;92.70;;;;;;5052807;28;20480;-59
2022/04/19 01:50:10;;;;;;;4.50;3.87;;;9.20;93.20;;;;;;5053210;28;20456;-60
2022/04/19 01:52:37;;;;;;;6.80;4.83;;;9.00;93.00;;;;;;5052979;28;20495;-60
2022/04/19 01:55:08;;;;;;;4.47;4.07;;;9.00;93.50;;;;;;5052897;28;20445;-60
2022/04/19 01:57:36;;;;;;;4.50;3.63;;;9.00;93.70;;;;;;5052778;28;21002;-60
2022/04/19 02:00:04;;;;;;;6.30;5.03;;;8.90;93.70;;;;;;5053112;28;20536;-60
2022/04/19 02:02:32;;;;;;;5.60;4.67;;;8.90;94.10;;;;;;5053036;28;20477;-60
2022/04/19 02:04:59;;;;;;;4.80;4.00;;;8.90;94.60;;;;;;5052767;28;20457;-60
2022/04/19 02:07:26;;;;;;;8.23;4.50;;;8.90;94.20;;;;;;5055346;28;20484;-59
2022/04/19 02:09:53;;;;;;;4.90;4.10;;;8.90;94.50;;;;;;5056889;28;20441;-60
2022/04/19 02:12:24;;;;;;;4.77;4.03;;;8.90;94.50;;;;;;5056779;28;20449;-60
2022/04/19 02:14:51;;;;;;;15.80;5.17;;;8.90;94.70;;;;;;5056751;28;20445;-60
2022/04/19 02:17:19;;;;;;;4.60;4.20;;;8.90;95.00;;;;;;5056448;28;20452;-60
2022/04/19 02:19:47;;;;;;;5.37;4.87;;;8.70;95.30;;;;;;5056407;28;20928;-60
2022/04/19 02:22:14;;;;;;;5.00;4.50;;;8.70;94.90;;;;;;5056532;28;20473;-59
2022/04/19 02:24:42;;;;;;;4.87;4.37;;;8.70;95.80;;;;;;5056577;28;20444;-60
2022/04/19 02:27:09;;;;;;;4.80;4.33;;;8.70;95.50;;;;;;5056647;28;20459;-60
2022/04/19 02:29:37;;;;;;;6.33;4.27;;;8.70;95.40;;;;;;5056515;28;20441;-59
2022/04/19 02:32:05;;;;;;;6.07;4.30;;;8.70;95.90;;;;;;5055990;28;20473;-59
2022/04/19 02:34:33;;;;;;;5.80;3.80;;;8.70;96.50;;;;;;5056142;28;20571;-59
2022/04/19 02:37:00;;;;;;;3.97;3.57;;;8.70;96.00;;;;;;5056006;28;20507;-59
2022/04/19 02:39:30;;;;;;;5.53;4.30;;;8.70;96.00;;;;;;5054684;28;20476;-59
2022/04/19 02:41:57;;;;;;;5.87;4.40;;;8.70;96.20;;;;;;5056255;28;20534;-60
2022/04/19 02:44:24;;;;;;;5.20;4.70;;;8.60;96.80;;;;;;5056178;28;20455;-59
2022/04/19 02:46:52;;;;;;;4.73;4.23;;;8.40;96.50;;;;;;5055799;28;20445;-60
2022/04/19 02:49:19;;;;;;;4.50;4.07;;;8.50;96.80;;;;;;5055849;28;20473;-60
2022/04/19 02:51:47;;;;;;;8.23;4.13;;;8.30;96.50;;;;;;5056112;28;20441;-59
2022/04/19 02:54:16;;;;;;;6.73;4.37;;;8.30;96.70;;;;;;5055893;28;20834;-59
2022/04/19 02:56:43;;;;;;;6.87;4.57;;;8.40;96.70;;;;;;5056156;28;20452;-59
2022/04/19 02:59:10;;;;;;;5.17;3.83;;;8.40;96.10;;;;;;5055846;28;20465;-59
2022/04/19 03:01:37;;;;;;;5.43;3.90;;;8.50;96.50;;;;;;5055506;28;20914;-59
2022/04/19 03:04:06;;;;;;;4.40;4.00;;;8.60;96.60;;;;;;5055785;28;20453;-59
2022/04/19 03:06:33;;;;;;;4.33;3.93;;;8.60;96.60;;;;;;5055781;28;20446;-60
2022/04/19 03:09:00;;;;;;;3.80;3.47;;;8.50;96.50;;;;;;5055609;28;20477;-59
2022/04/19 03:11:28;;;;;;;5.00;4.50;;;8.40;96.40;;;;;;5055481;28;20445;-59
2022/04/19 03:13:55;;;;;;;3.87;3.57;;;8.30;96.70;;;;;;5055660;28;20459;-59
2022/04/19 03:16:22;;;;;;;5.00;4.17;;;8.30;96.60;;;;;;5055261;28;20456;-59
2022/04/19 03:18:50;;;;;;;7.00;4.17;;;8.30;97.00;;;;;;5055372;28;20477;-59
2022/04/19 03:21:18;;;;;;;4.57;4.00;;;8.20;97.10;;;;;;5055182;28;20452;-59
2022/04/19 03:29:14;;;;;;;9.97;4.33;;;8.20;97.60;;;;;;5055136;28;20595;-60
2022/04/19 03:31:41;;;;;;;4.03;3.73;;;8.10;97.60;;;;;;5055082;28;20473;-59
2022/04/19 03:34:08;;;;;;;4.33;3.90;;;8.10;98.20;;;;;;5055673;28;20446;-59
2022/04/19 03:36:37;;;;;;;5.10;4.60;;;8.20;98.20;;;;;;5054963;28;20456;-59
2022/04/19 03:39:04;;;;;;;4.90;4.40;;;8.20;97.90;;;;;;5055140;28;20469;-59
2022/04/19 03:41:31;;;;;;;4.20;3.80;;;8.20;98.10;;;;;;5055166;28;20452;-59
2022/04/19 03:43:58;;;;;;;4.50;4.07;;;8.10;98.00;;;;;;5054785;28;20456;-60
2022/04/19 03:46:25;;;;;;;4.90;4.40;;;8.10;98.10;;;;;;5055025;28;20445;-60
2022/04/19 03:48:53;;;;;;;6.00;4.27;;;8.00;98.70;;;;;;5055016;28;20472;-60
2022/04/19 03:51:20;;;;;;;5.83;4.10;;;8.10;99.10;;;;;;5054612;28;20445;-59
2022/04/19 03:53:49;;;;;;;5.10;4.20;;;8.20;99.90;;;;;;5054547;28;20932;-59
2022/04/19 03:56:16;;;;;;;7.47;5.27;;;8.20;98.10;;;;;;5054745;28;20464;-60
2022/04/19 03:58:43;;;;;;;5.30;4.13;;;8.30;97.90;;;;;;5054480;28;20473;-59
2022/04/19 04:01:10;;;;;;;4.93;4.43;;;8.10;98.10;;;;;;5054710;28;20453;-59
2022/04/19 04:03:37;;;;;;;4.60;4.20;;;8.00;98.30;;;;;;5054719;28;20485;-59
2022/04/19 04:06:04;;;;;;;7.43;4.73;;;7.90;98.60;;;;;;5054605;28;20534;-60
2022/04/19 04:08:31;;;;;;;4.40;4.00;;;7.90;98.20;;;;;;5054475;28;20551;-59
2022/04/19 04:11:00;;;;;;;5.40;4.17;;;7.90;98.40;;;;;;5054333;28;20444;-59
2022/04/19 04:13:28;;;;;;;4.03;3.63;;;7.80;99.40;;;;;;5054469;28;20443;-59
2022/04/19 04:15:55;;;;;;;8.10;4.33;;;7.80;99.10;;;;;;5054415;28;20920;-59
2022/04/19 04:18:22;;;;;;;5.37;4.30;;;7.90;99.30;;;;;;5054406;28;20461;-59
2022/04/19 04:20:49;;;;;;;4.40;4.00;;;7.90;99.20;;;;;;5054346;28;20448;-59
2022/04/19 04:23:16;;;;;;;7.07;4.50;;;7.90;99.60;;;;;;5053905;28;20987;-59
2022/04/19 04:25:43;;;;;;;4.20;3.80;;;7.90;99.20;;;;;;5054258;28;20552;-59
2022/04/19 04:28:12;;;;;;;4.53;3.90;;;7.80;99.60;;;;;;5053886;28;20453;-59
2022/04/19 04:30:39;;;;;;;8.40;4.33;;;7.80;99.70;;;;;;5053081;28;20495;-59
2022/04/19 04:33:06;;;;;;;5.63;4.80;;;7.70;99.80;;;;;;5053867;28;20453;-59
2022/04/19 04:35:33;;;;;;;5.07;4.30;;;7.80;99.60;;;;;;5054179;28;20527;-59
2022/04/19 04:38:00;;;;;;;4.67;4.10;;;7.80;99.90;;;;;;5054067;28;20474;-59
2022/04/19 04:40:28;;;;;;;5.80;4.10;;;7.80;99.70;;;;;;5053984;28;20451;-59
2022/04/19 04:42:55;;;;;;;5.80;4.60;;;7.80;99.90;;;;;;5053926;28;20891;-59
2022/04/19 04:45:25;;;;;;;5.63;4.00;;;7.90;99.80;;;;;;5053880;28;20453;-59
2022/04/19 04:50:37;;;;;;;5.90;5.13;;;7.70;99.90;;;;;;5053654;28;20409;-59
2022/04/19 04:53:04;;;;;;;6.13;4.60;;;7.80;99.00;;;;;;5053861;28;20447;-60
2022/04/19 04:55:31;;;;;;;5.70;3.90;;;7.90;99.40;;;;;;5053403;28;20995;-60
2022/04/19 04:58:01;;;;;;;6.53;5.23;;;7.90;99.30;;;;;;5053362;28;20481;-59
2022/04/19 05:00:34;;;;;;;5.17;4.47;;;7.90;99.10;;;;;;5053764;28;20532;-59
2022/04/19 05:03:01;;;;;;;8.30;4.70;;;8.00;99.10;;;;;;5053509;28;21009;-59
2022/04/19 05:05:29;;;;;;;6.00;3.80;;;8.00;98.70;;;;;;5053584;28;20449;-59
2022/04/19 05:07:57;;;;;;;9.63;4.50;;;8.00;98.50;;;;;;5053301;28;20473;-59
2022/04/19 05:10:24;;;;;;;7.20;4.50;;;8.00;99.00;;;;;;5053316;28;20540;-59
2022/04/19 05:12:51;;;;;;;5.03;4.27;;;8.00;98.60;;;;;;5053413;28;20541;-59
2022/04/19 05:15:19;;;;;;;5.93;4.70;;;7.90;98.90;;;;;;5053148;28;20449;-59
2022/04/19 05:17:48;;;;;;;11.63;4.73;;;7.90;99.10;;;;;;5053151;28;20468;-59
2022/04/19 05:20:15;;;;;;;11.00;4.13;;;7.90;99.20;;;;;;5053090;28;20453;-59
2022/04/19 05:22:42;;;;;;;8.50;4.70;;;8.00;99.20;;;;;;5052927;28;20980;-59
2022/04/19 05:25:09;;;;;;;5.60;3.63;;;8.00;99.10;;;;;;5053251;28;20449;-60
2022/04/19 05:27:37;;;;;;;4.90;4.40;;;8.10;97.90;;;;;;5053090;28;21001;-59
2022/04/19 05:30:05;;;;;;;7.07;4.20;;;8.10;98.00;;;;;;5052975;28;20450;-59
2022/04/19 05:32:32;;;;;;;5.87;4.77;;;8.20;97.50;;;;;;5052823;28;20587;-60
2022/04/19 05:35:01;;;;;;;13.50;4.70;;;8.30;97.70;;;;;;5053203;28;20445;-60
2022/04/19 05:37:28;;;;;;;7.80;4.90;;;8.30;97.70;;;;;;5053316;28;20556;-59
2022/04/19 05:39:55;;;;;;;5.20;4.40;;;8.30;98.70;;;;;;5053538;28;20534;-59
2022/04/19 05:42:22;;;;;;;7.77;5.53;;;8.40;98.60;;;;;;5056834;28;20477;-59
2022/04/19 05:44:49;;;;;;;5.53;4.77;;;8.50;97.70;;;;;;5057162;28;20471;-59
2022/04/19 05:47:16;;;;;;;5.70;4.97;;;8.50;98.50;;;;;;5057116;28;20455;-59
2022/04/19 05:49:44;;;;;;;5.57;5.03;;;8.60;98.30;;;;;;5057148;28;20449;-60
2022/04/19 05:52:13;;;;;;;7.27;5.30;;;8.70;97.60;;;;;;5056638;28;20455;-59
2022/04/19 05:54:40;;;;;;;4.97;4.57;;;8.60;97.50;;;;;;5056894;28;20455;-60
2022/04/19 05:57:09;;;;;;;6.33;5.10;;;8.70;97.50;;;;;;5056955;28;20459;-59
2022/04/19 05:59:36;;;;;;;8.60;5.80;;;8.80;97.30;;;;;;5056947;28;20818;-59
2022/04/19 06:04:54;;;;;;;8.50;5.97;;;8.80;97.60;;;;;;5056656;28;20401;-59
2022/04/19 06:07:23;;;;;;;6.60;6.00;;;8.80;97.30;;;;;;5056927;28;20444;-59
2022/04/19 06:09:50;;;;;;;10.30;6.77;;;8.70;97.20;;;;;;5056312;28;20538;-59
2022/04/19 06:12:17;;;;;;;6.97;5.70;;;8.80;97.30;;;;;;5056670;28;20449;-60
2022/04/19 06:14:45;;;;;;;6.67;6.07;;;8.90;97.70;;;;;;5056664;28;20441;-59
2022/04/19 06:17:14;;;;;;;8.37;6.93;;;9.00;97.30;;;;;;5056310;28;20801;-60
2022/04/19 06:19:42;;;;;;;9.93;6.43;;;9.10;98.00;;;;;;5056145;28;21005;-59
2022/04/19 06:22:09;;;;;;;6.90;5.90;;;9.20;97.00;;;;;;5056276;28;20643;-59
2022/04/19 06:24:38;;;;;;;6.07;5.40;;;9.30;97.00;;;;;;5055881;28;20485;-60
2022/04/19 06:27:08;;;;;;;9.63;3.80;;;9.30;96.60;;;;;;5056518;28;20797;-60
2022/04/19 06:29:35;;;;;;;7.70;4.00;;;12.30;94.70;;;;;;5056300;28;20460;-60
2022/04/19 06:32:02;;;;;;;6.33;4.47;;;14.80;89.60;;;;;;5055849;28;20477;-60
2022/04/19 06:34:29;;;;;;;6.97;5.10;;;16.30;81.90;;;;;;5055943;28;20459;-61
2022/04/19 06:36:57;;;;;;;6.07;3.83;;;16.50;76.00;;;;;;5055560;28;20493;-61
2022/04/19 06:39:25;;;;;;;4.67;3.53;;;17.30;79.80;;;;;;5055997;28;20476;-62
2022/04/19 06:41:54;;;;;;;5.90;4.37;;;17.40;77.80;;;;;;5055518;28;20527;-62
2022/04/19 06:44:22;;;;;;;5.60;4.27;;;17.70;74.30;;;;;;5055880;28;20489;-64
2022/04/19 06:46:49;;;;;;;6.43;5.83;;;17.50;72.30;;;;;;5055629;28;20535;-61
2022/04/19 06:49:16;;;;;;;8.60;5.30;;;17.00;71.60;;;;;;5056016;28;20501;-62
2022/04/19 06:51:44;;;;;;;6.47;4.70;;;16.70;70.50;;;;;;5055273;28;20498;-61
2022/04/19 06:54:12;;;;;;;5.87;4.50;;;17.20;69.70;;;;;;5055793;28;20441;-61
2022/04/19 06:56:39;;;;;;;5.23;4.73;;;17.50;68.40;;;;;;5055517;28;20552;-66
2022/04/19 06:59:08;;;;;;;5.50;4.77;;;18.00;66.40;;;;;;5054829;28;20476;-62
2022/04/19 07:01:35;;;;;;;4.70;4.00;;;18.10;65.90;;;;;;5066363;28;20452;-62
2022/04/19 07:04:03;;;;;;;7.17;4.20;;;18.20;64.90;;;;;;5054369;28;20481;-62
2022/04/19 07:06:30;;;;;;;5.13;4.17;;;17.60;65.10;;;;;;5067469;28;20453;-63
2022/04/19 07:08:57;;;;;;;5.90;5.13;;;17.20;66.10;;;;;;5075350;28;20471;-61
2022/04/19 07:11:24;;;;;;;5.67;5.07;;;17.60;64.10;;;;;;5061547;28;20453;-61
2022/04/19 07:13:52;;;;;;;5.17;4.00;;;17.80;62.70;;;;;;5055568;28;20445;-61
2022/04/19 07:16:20;;;;;;;4.37;3.97;;;17.90;63.50;;;;;;5055476;28;20528;-61
2022/04/19 07:18:47;;;;;;;7.90;4.90;;;17.30;63.10;;;;;;5055142;28;20947;-62
2022/04/19 07:26:45;;;;;;;10.60;4.60;;;17.40;63.70;;;;;;5075497;28;20451;-59
2022/04/19 07:29:13;;;;;;;8.77;4.10;;;17.50;63.70;;;;;;5075378;28;20468;-57
2022/04/19 07:31:43;;;;;;;7.40;5.37;;;17.80;62.70;;;;;;5064022;28;20473;-58
2022/04/19 07:34:11;;;;;;;6.63;5.00;;;17.70;63.20;;;;;;5057159;28;21007;-58
2022/04/19 07:36:39;;;;;;;5.57;4.50;;;18.00;62.70;;;;;;5071282;28;20448;-57
2022/04/19 07:39:07;;;;;;;5.13;4.40;;;18.00;61.70;;;;;;5074685;28;20938;-58
2022/04/19 07:41:35;;;;;;;6.17;5.67;;;17.90;62.30;;;;;;5074494;28;20452;-49
2022/04/19 07:44:04;;;;;;;10.50;4.93;;;17.30;61.90;;;;;;5064774;28;20477;-61
2022/04/19 07:46:31;;;;;;;6.23;5.40;;;17.10;63.70;;;;;;5074583;28;20535;-64
2022/04/19 07:49:00;;;;;;;9.30;5.77;;;17.30;62.80;;;;;;5069036;28;20475;-57
2022/04/19 07:51:27;;;;;;;6.00;5.40;;;17.60;63.00;;;;;;5061297;28;20532;-60
2022/04/19 07:53:55;;;;;;;6.87;6.10;;;17.20;63.00;;;;;;5054264;28;20900;-60
2022/04/19 07:56:22;;;;;;;7.53;6.83;;;16.90;62.60;;;;;;5073266;28;20953;-61
2022/04/19 07:58:50;;;;;;;7.70;6.50;;;15.80;63.80;;;;;;5054873;28;21007;-68
2022/04/19 08:01:18;;;;;;;6.37;5.77;;;14.90;64.70;;;;;;5073950;28;20817;-57
2022/04/19 08:03:45;;;;;;;8.60;5.30;;;15.40;67.00;;;;;;5072922;28;20484;-60
2022/04/19 08:06:14;;;;;;;8.07;6.60;;;15.50;66.70;;;;;;5073610;28;20444;-59
2022/04/19 08:08:43;;;;;;;9.83;6.17;;;15.10;66.00;;;;;;5053859;28;20477;-62
2022/04/19 08:11:10;;;;;;;9.57;6.40;;;14.90;68.80;;;;;;5015313;28;20486;-59
2022/04/19 08:13:37;;;;;;;8.30;7.00;;;15.20;67.80;;;;;;5014236;28;20454;-55
2022/04/19 08:16:05;;;;;;;11.70;7.73;;;15.00;68.00;;;;;;5013387;28;20455;-53
2022/04/19 08:18:33;;;;;;;7.27;6.47;;;14.70;67.30;;;;;;5014475;28;20471;-55
2022/04/19 08:21:00;;;;;;;6.37;5.77;;;14.70;67.80;;;;;;5014005;28;20793;-56
2022/04/19 08:23:30;;;;;;;12.10;6.63;;;14.90;68.50;;;;;;5013794;28;20587;-56
2022/04/19 08:25:57;;;;;;;14.40;5.50;;;16.70;66.50;;;;;;5003039;28;20546;-55
2022/04/19 08:28:24;;;;;;;7.70;5.27;;;16.90;66.80;;;;;;4998250;28;20813;-57
2022/04/19 08:30:51;;;;;;;7.90;6.33;;;18.00;64.50;;;;;;5001094;28;20444;-57
2022/04/19 08:33:18;;;;;;;10.10;6.00;;;18.90;61.70;;;;;;5002578;28;20439;-59
2022/04/19 08:35:46;;;;;;;9.10;5.90;;;;;;;;;;5000747;28;20935;-64
2022/04/19 08:38:13;;;;;;;7.37;5.57;;;19.60;59.80;;;;;;5010382;28;21993;-59
2022/04/19 08:40:42;;;;;;;9.53;6.07;;;19.10;57.80;;;;;;5011510;28;20946;-57
2022/04/19 08:43:11;;;;;;;5.80;5.10;;;19.00;57.40;;;;;;5013469;28;20534;-55
2022/04/19 08:45:38;;;;;;;11.47;5.53;;;19.60;57.80;;;;;;4999431;28;20530;-56
2022/04/19 08:48:09;;;;;;;5.47;4.97;;;20.10;57.70;;;;;;4993300;28;21038;-57
2022/04/19 08:50:38;;;;;;;8.50;6.10;;;20.30;56.30;;;;;;4994348;28;20432;-58
2022/04/19 08:58:36;;;;;;;8.23;5.27;;;20.40;55.80;;;;;;5004805;28;20476;-55
2022/04/19 09:01:05;;;;;;;7.47;4.73;;;20.60;55.40;;;;;;4997768;28;20535;-55
2022/04/19 09:03:33;;;;;;;5.73;4.30;;;21.10;53.60;;;;;;4993970;28;20839;-56
2022/04/19 09:06:00;;;;;;;8.27;5.57;;;;;;;;;;4995129;28;20478;-56
2022/04/19 09:08:27;;;;;;;7.47;5.30;;;21.70;54.10;;;;;;5004724;28;20468;-62
2022/04/19 09:11:07;;;;;;;5.33;4.80;;;21.50;52.30;;;;;;4993642;28;20460;-57
2022/04/19 09:13:34;;;;;;;4.70;4.20;;;21.80;53.80;;;;;;5002387;28;20439;-60
2022/04/19 09:16:05;;;;;;;5.13;4.10;;;22.50;53.60;;;;;;5013352;28;20535;-56
2022/04/19 09:18:34;;;;;;;6.90;4.30;;;22.90;52.20;;;;;;5013199;28;20470;-56
2022/04/19 09:21:03;;;;;;;6.60;4.03;;;23.30;52.00;;;;;;5012800;28;20539;-59
2022/04/19 09:23:31;;;;;;;6.40;5.53;;;23.80;49.00;;;;;;5012935;28;20989;-58
2022/04/19 09:26:01;;;;;;;4.50;4.00;;;22.90;48.90;;;;;;5012246;28;20542;-57
2022/04/19 09:28:30;;;;;;;5.93;4.20;;;21.60;48.90;;;;;;5012914;28;20494;-54
2022/04/19 09:30:59;;;;;;;6.30;4.37;;;21.50;50.00;;;;;;5012524;28;20457;-55
2022/04/19 09:33:28;;;;;;;7.87;4.40;;;22.20;49.60;;;;;;4997027;28;20525;-55
2022/04/19 09:35:57;;;;;;;3.83;3.53;;;22.10;49.80;;;;;;4994244;28;20961;-60
2022/04/19 09:38:36;;;;;;;5.13;4.37;;;23.20;49.40;;;;;;5003483;28;20795;-56
2022/04/19 09:41:04;;;;;;;6.63;4.33;;;23.60;47.00;;;;;;4995317;28;20451;-57
2022/04/19 09:43:33;;;;;;;6.77;4.00;;;23.90;46.10;;;;;;5001987;28;20447;-56
2022/04/19 09:46:03;;;;;;;4.33;3.57;;;23.30;43.90;;;;;;5010770;28;20465;-59
2022/04/19 09:48:32;;;;;;;6.63;3.30;;;23.70;43.40;;;;;;5004021;28;20557;-57
2022/04/19 09:51:02;;;;;;;3.87;3.47;;;23.40;43.80;;;;;;4999334;28;21117;-57
2022/04/19 09:53:31;;;;;;;4.00;3.47;;;23.70;43.20;;;;;;5005048;28;20444;-59
2022/04/19 09:56:00;;;;;;;4.30;3.53;;;24.40;44.50;;;;;;5006356;28;20474;-57
2022/04/19 09:58:29;;;;;;;3.60;3.13;;;23.60;43.20;;;;;;4993528;28;20581;-55
2022/04/19 10:01:02;;;;;;;5.43;4.27;;;23.80;43.40;;;;;;5005911;28;20456;-54
2022/04/19 10:09:06;;;;;;;4.33;3.63;;;23.90;44.50;;;;;;5008001;28;20456;-57
2022/04/19 10:11:38;;;;;;;5.20;3.53;;;23.50;43.10;;;;;;4992724;28;20440;-56
2022/04/19 10:14:08;;;;;;;5.97;5.00;;;23.20;42.70;;;;;;4992949;28;20432;-59
2022/04/19 10:16:37;;;;;;;6.60;3.70;;;23.10;42.60;;;;;;4993173;28;20451;-54
2022/04/19 10:19:10;;;;;;;7.80;4.00;;;23.50;42.30;;;;;;4995376;28;20471;-55
2022/04/19 10:21:42;;;;;;;3.93;3.00;;;22.20;40.90;;;;;;4993200;28;20432;-57
2022/04/19 10:24:14;;;;;;;4.40;3.47;;;22.10;41.50;;;;;;4992596;28;21073;-57
2022/04/19 10:26:56;;;;;;;3.73;3.43;;;22.00;41.50;;;;;;4992393;28;20558;-55
2022/04/19 10:29:33;;;;;;;3.43;3.13;;;22.10;41.60;;;;;;5006444;28;20470;-55
2022/04/19 10:32:04;;;;;;;6.27;3.90;;;21.60;41.20;;;;;;5013562;28;20482;-54
2022/04/19 10:34:33;;;;;;;4.70;4.20;;;21.70;41.90;;;;;;4996386;28;20448;-52
2022/04/19 10:37:21;;;;;;;4.00;3.60;;;22.30;42.80;;;;;;4996773;28;20463;-57
2022/04/19 10:39:49;;;;;;;6.17;3.60;;;23.00;40.70;;;;;;5011418;28;20447;-56
2022/04/19 10:42:30;;;;;;;4.63;3.80;;;23.20;41.20;;;;;;5015482;28;20547;-59
2022/04/19 10:45:18;;;;;;;4.53;4.00;;;23.50;41.90;;;;;;5015727;28;21051;-57
2022/04/19 10:48:05;;;;;;;7.50;4.00;;;22.80;41.10;;;;;;5015036;28;20474;-57
2022/04/19 10:50:33;;;;;;;4.50;3.70;;;22.90;41.00;;;;;;5015711;28;20470;-53
2022/04/19 10:53:03;;;;;;;3.57;3.20;;;23.30;41.70;;;;;;5003997;28;20451;-59
2022/04/19 10:55:31;;;;;;;4.03;3.63;;;23.40;40.90;;;;;;5011360;28;20451;-59
2022/04/19 10:58:20;;;;;;;6.80;4.30;;;23.30;41.10;;;;;;4995035;28;20471;-58
2022/04/19 11:00:55;;;;;;;3.53;3.23;;;23.10;42.10;;;;;;5011130;28;20443;-57
2022/04/19 11:03:46;;;;;;;5.07;3.77;;;23.40;41.40;;;;;;5015129;28;20922;-57
2022/04/19 11:06:32;;;;;;;4.20;3.80;;;23.90;42.50;;;;;;5015314;28;20435;-57
2022/04/19 11:09:26;;;;;;;4.57;3.97;;;23.50;41.70;;;;;;4996444;28;20472;-61
2022/04/19 11:11:56;;;;;;;6.90;3.97;;;23.00;41.50;;;;;;4996089;28;20442;-62
2022/04/19 11:14:47;;;;;;;4.83;3.83;;;22.80;41.40;;;;;;5009903;28;20447;-62
2022/04/19 11:17:32;;;;;;;4.83;4.20;;;23.80;41.80;;;;;;4996171;28;20443;-62
2022/04/19 11:20:10;;;;;;;5.63;4.00;;;24.40;40.70;;;;;;4992865;28;20448;-61
2022/04/19 11:22:51;;;;;;;4.90;4.40;;;23.00;40.60;;;;;;4999025;28;20446;-61
2022/04/19 11:25:40;;;;;;;5.00;4.40;;;22.60;41.00;;;;;;5015039;28;20486;-63
2022/04/19 11:28:24;;;;;;;5.37;4.77;;;21.80;41.70;;;;;;4997644;28;20468;-56
2022/04/19 11:31:15;;;;;;;4.60;4.10;;;21.90;41.60;;;;;;4995538;28;20943;-57
2022/04/19 11:33:43;;;;;;;5.33;3.83;;;22.40;41.60;;;;;;4995510;28;20447;-56
2022/04/19 11:36:14;;;;;;;4.57;3.80;;;22.60;42.30;;;;;;5000845;28;20444;-57
2022/04/19 11:38:44;;;;;;;4.93;4.20;;;23.70;40.90;;;;;;5014748;28;20463;-57
2022/04/19 11:46:53;;;;;;;6.07;5.40;;;23.00;41.10;;;;;;4973751;28;20508;-56
2022/04/19 11:49:27;;;;;;;4.07;3.67;;;22.20;39.90;;;;;;5005011;28;20490;-57
2022/04/19 11:51:57;;;;;;;4.63;4.23;;;22.60;40.80;;;;;;5015144;28;20806;-56
2022/04/19 11:54:27;;;;;;;4.73;4.23;;;23.10;40.50;;;;;;5014478;28;20439;-56
2022/04/19 11:56:54;;;;;;;4.27;3.87;;;23.40;40.30;;;;;;5015054;28;20455;-56
2022/04/19 11:59:27;;;;;;;4.40;3.83;;;23.50;40.60;;;;;;5014625;28;20494;-57
2022/04/19 12:01:55;;;;;;;4.27;3.90;;;23.70;40.10;;;;;;5014891;28;20438;-56
2022/04/19 12:04:22;;;;;;;7.00;4.73;;;23.20;40.20;;;;;;5014322;28;20487;-56
2022/04/19 12:06:52;;;;;;;5.00;4.50;;;23.90;40.10;;;;;;5014643;28;20447;-56
2022/04/19 12:09:22;;;;;;;5.57;4.77;;;24.10;40.60;;;;;;5014458;28;21055;-57
2022/04/19 12:11:50;;;;;;;5.87;5.30;;;23.00;39.60;;;;;;5014622;28;20466;-56
2022/04/19 12:14:28;;;;;;;7.60;6.20;;;22.00;40.80;;;;;;5014690;28;20462;-57
2022/04/19 12:16:58;;;;;;;6.90;4.80;;;22.10;41.20;;;;;;5014473;28;20463;-57
2022/04/19 12:19:40;;;;;;;7.67;6.00;;;22.70;41.60;;;;;;5014692;28;20525;-57
2022/04/19 12:22:18;;;;;;;5.87;5.30;;;23.00;40.90;;;;;;5014172;28;20494;-57
2022/04/19 12:24:50;;;;;;;7.80;5.13;;;23.10;41.10;;;;;;5014176;28;20483;-57
2022/04/19 12:27:25;;;;;;;6.00;5.07;;;23.00;41.10;;;;;;5014040;28;20526;-57
2022/04/19 12:29:58;;;;;;;10.30;5.50;;;23.40;41.50;;;;;;5014414;28;20423;-57
2022/04/19 12:32:25;;;;;;;9.33;4.63;;;23.40;41.00;;;;;;5013865;28;20845;-56
2022/04/19 12:35:07;;;;;;;5.17;4.67;;;23.30;40.80;;;;;;5013839;28;21005;-56
2022/04/19 12:37:34;;;;;;;6.73;5.20;;;23.90;40.70;;;;;;5013837;28;20518;-56
2022/04/19 12:40:04;;;;;;;5.87;5.27;;;23.60;39.80;;;;;;5013510;28;20466;-57
2022/04/19 12:42:49;;;;;;;5.50;4.80;;;23.60;40.20;;;;;;5014022;28;20881;-57
2022/04/19 12:45:17;;;;;;;7.20;5.00;;;23.60;41.50;;;;;;5014147;28;20467;-56
2022/04/19 12:47:46;;;;;;;5.63;4.80;;;23.80;40.70;;;;;;5013965;28;20529;-57
2022/04/19 12:50:15;;;;;;;5.63;4.93;;;22.90;39.80;;;;;;5013281;28;20454;-57
2022/04/19 12:52:43;;;;;;;5.30;4.70;;;23.10;41.80;;;;;;5014078;28;20538;-57
2022/04/19 12:55:12;;;;;;;5.37;4.60;;;22.60;39.40;;;;;;5013636;28;20455;-56
2022/04/19 12:57:41;;;;;;;5.57;4.40;;;22.50;40.00;;;;;;5013548;28;20981;-56
2022/04/19 13:00:11;;;;;;;6.03;4.67;;;22.70;40.00;;;;;;5013753;28;20487;-56
2022/04/19 13:02:38;;;;;;;6.40;4.87;;;22.80;41.20;;;;;;5013538;28;20546;-56
2022/04/19 13:05:06;;;;;;;8.53;6.23;;;23.10;40.70;;;;;;5013787;28;20569;-57
2022/04/19 13:13:03;;;;;;;7.30;4.90;;;22.70;41.70;;;;;;4991364;28;20428;-56
2022/04/19 13:15:32;;;;;;;6.40;4.87;;;23.30;41.70;;;;;;5013670;28;20534;-56
2022/04/19 13:17:59;;;;;;;6.67;4.80;;;22.90;40.50;;;;;;5013574;28;20473;-56
2022/04/19 13:20:27;;;;;;;5.37;4.33;;;22.60;40.60;;;;;;5013529;28;20516;-56
2022/04/19 13:22:54;;;;;;;5.83;4.50;;;22.70;40.30;;;;;;5013615;28;20453;-56
2022/04/19 13:25:23;;;;;;;5.93;4.20;;;22.30;39.70;;;;;;5013147;28;20487;-56
2022/04/19 13:27:50;;;;;;;12.20;5.67;;;22.70;40.40;;;;;;5013445;28;20558;-56
2022/04/19 13:30:19;;;;;;;6.40;4.80;;;22.40;40.30;;;;;;5013078;28;20452;-56
2022/04/19 13:32:46;;;;;;;5.60;5.00;;;22.10;40.10;;;;;;5013135;28;20483;-56
2022/04/19 13:35:14;;;;;;;6.70;4.30;;;21.50;40.60;;;;;;5013220;28;20541;-56
2022/04/19 13:40:27;;;;;;;4.73;4.33;;;22.20;40.80;;;;;;5013206;28;20780;-56
2022/04/19 13:42:55;;;;;;;6.13;5.40;;;22.50;40.10;;;;;;5013384;28;20485;-56
2022/04/19 13:45:22;;;;;;;5.67;5.07;;;21.10;39.20;;;;;;5013141;28;20490;-56